createdAt,value
2023-05-11T00:02:14.061Z,2.7
2023-05-11T00:05:16.084Z,2.7
2023-05-11T00:08:18.094Z,1.8
2023-05-11T00:11:20.038Z,2.6
2023-05-11T00:14:22.010Z,1.3
2023-05-11T00:17:23.945Z,3
2023-05-11T00:20:25.900Z,3.2
2023-05-11T00:23:27.890Z,2.5
2023-05-11T00:26:29.863Z,2.2
2023-05-11T00:29:31.828Z,2.1
2023-05-11T00:32:33.818Z,1.7
2023-05-11T00:35:35.756Z,3.2
2023-05-11T00:38:37.673Z,3.2
2023-05-11T00:41:39.662Z,2.5
2023-05-11T00:44:41.678Z,2.1
2023-05-11T00:47:43.683Z,5.1
2023-05-11T00:50:45.581Z,2.3
2023-05-11T00:53:47.539Z,1.9
2023-05-11T00:56:49.532Z,3.1
2023-05-11T00:59:51.519Z,1.9
2023-05-11T01:02:53.568Z,2.4
2023-05-11T01:05:55.474Z,3.2
2023-05-11T01:08:57.463Z,2.9
2023-05-11T01:11:59.503Z,2.9
2023-05-11T01:15:01.438Z,2.4
2023-05-11T01:18:03.523Z,2
2023-05-11T01:21:05.391Z,2.2
2023-05-11T01:24:07.333Z,2.4
2023-05-11T01:27:09.291Z,1.9
2023-05-11T01:30:11.245Z,1.5
2023-05-11T01:33:13.276Z,2.1
2023-05-11T01:36:15.172Z,2.7
2023-05-11T01:39:17.129Z,3.2
2023-05-11T01:42:19.106Z,2.6
2023-05-11T01:45:21.078Z,1.7
2023-05-11T01:48:23.006Z,1.3
2023-05-11T01:51:24.985Z,3
2023-05-11T01:54:26.969Z,4.2
2023-05-11T01:57:28.933Z,2.8
2023-05-11T02:00:30.996Z,2.1
2023-05-11T02:03:32.912Z,2.5
2023-05-11T02:06:34.806Z,1.7
2023-05-11T02:09:36.807Z,2.5
2023-05-11T02:12:38.744Z,1.9
2023-05-11T02:15:40.819Z,4.2
2023-05-11T02:18:42.813Z,4.3
2023-05-11T02:21:44.800Z,3.4
2023-05-11T02:24:46.613Z,2.6
2023-05-11T02:27:48.648Z,1.7
2023-05-11T02:30:50.579Z,1.6
2023-05-11T02:33:52.916Z,2
2023-05-11T02:36:54.514Z,2.4
2023-05-11T02:39:56.456Z,4.1
2023-05-11T02:42:58.461Z,2.9
2023-05-11T02:46:00.352Z,1.6
2023-05-11T02:49:02.319Z,1.6
2023-05-11T02:52:04.287Z,2.2
2023-05-11T02:55:06.250Z,4.1
2023-05-11T02:58:08.224Z,2.9
2023-05-11T03:01:10.285Z,3.4
2023-05-11T03:04:12.246Z,1.4
2023-05-11T03:07:14.123Z,1.8
2023-05-11T03:10:16.122Z,1.9
2023-05-11T03:13:18.049Z,3
2023-05-11T03:16:21.224Z,4.1
2023-05-11T03:19:21.954Z,3.4
2023-05-11T03:22:23.935Z,3
2023-05-11T03:25:25.921Z,3.2
2023-05-11T03:28:27.898Z,2.3
2023-05-11T03:31:29.852Z,3.9
2023-05-11T03:34:31.796Z,4.9
2023-05-11T03:37:33.787Z,3.6
2023-05-11T03:40:35.736Z,3
2023-05-11T03:43:37.717Z,5.4
2023-05-11T03:46:39.670Z,1.8
2023-05-11T03:49:41.632Z,3.3
2023-05-11T03:52:43.608Z,2.4
2023-05-11T03:55:45.536Z,3.6
2023-05-11T03:58:47.574Z,2.2
2023-05-11T04:01:49.499Z,2.4
2023-05-11T04:04:51.499Z,4
2023-05-11T04:07:53.415Z,3.2
2023-05-11T04:10:55.375Z,2.6
2023-05-11T04:13:57.384Z,2
2023-05-11T04:16:59.344Z,1.6
2023-05-11T04:20:01.275Z,3.2
2023-05-11T04:23:03.253Z,2.1
2023-05-11T04:26:05.274Z,2.8
2023-05-11T04:29:07.200Z,3.5
2023-05-11T04:32:09.218Z,3.8
2023-05-11T04:35:11.147Z,3
2023-05-11T04:38:13.066Z,4.4
2023-05-11T04:41:15.053Z,3.5
2023-05-11T04:44:17.009Z,3.9
2023-05-11T04:47:18.997Z,3.9
2023-05-11T04:50:21.002Z,3.7
2023-05-11T04:53:22.897Z,2.2
2023-05-11T04:56:24.862Z,1.9
2023-05-11T04:59:26.846Z,2.2
2023-05-11T05:02:28.908Z,2.9
2023-05-11T05:05:30.836Z,2.7
2023-05-11T05:08:32.777Z,2.7
2023-05-11T05:11:34.766Z,2.6
2023-05-11T05:14:36.700Z,2.7
2023-05-11T05:17:38.708Z,4.1
2023-05-11T05:20:40.611Z,3.2
2023-05-11T05:23:42.602Z,3.6
2023-05-11T05:26:44.782Z,2.2
2023-05-11T05:29:46.592Z,6
2023-05-11T05:32:48.601Z,3
2023-05-11T05:35:50.484Z,2.5
2023-05-11T05:38:52.449Z,3.1
2023-05-11T05:41:54.575Z,4.5
2023-05-11T05:44:56.395Z,4.2
2023-05-11T05:47:58.418Z,3.4
2023-05-11T05:51:00.294Z,2.8
2023-05-11T05:54:02.238Z,3.6
2023-05-11T05:57:04.216Z,3.6
2023-05-11T06:00:06.221Z,3.1
2023-05-11T06:03:08.302Z,5
2023-05-11T06:06:10.178Z,3.1
2023-05-11T06:09:12.120Z,6.3
2023-05-11T06:12:14.072Z,4
2023-05-11T06:15:16.049Z,5.2
2023-05-11T06:18:18.088Z,3.4
2023-05-11T06:21:20.013Z,4.3
2023-05-11T06:24:21.931Z,4.5
2023-05-11T06:27:24.055Z,4.9
2023-05-11T06:30:25.940Z,4.5
2023-05-11T06:33:27.962Z,4.3
2023-05-11T06:36:29.901Z,3.9
2023-05-11T06:39:31.842Z,4.7
2023-05-11T06:42:33.810Z,4.3
2023-05-11T06:45:35.789Z,5
2023-05-11T06:48:37.738Z,4.8
2023-05-11T06:51:39.718Z,6.3
2023-05-11T06:54:41.671Z,7.2
2023-05-11T06:57:43.636Z,6.4
2023-05-11T07:00:45.681Z,5.9
2023-05-11T07:03:47.638Z,6.5
2023-05-11T07:06:49.572Z,5.3
2023-05-11T07:09:51.519Z,4.6
2023-05-11T07:12:53.498Z,3.4
2023-05-11T07:15:57.495Z,4.5
2023-05-11T07:18:57.499Z,4.3
2023-05-11T07:21:59.431Z,7.3
2023-05-11T07:25:01.387Z,6.7
2023-05-11T07:28:03.370Z,5.6
2023-05-11T07:31:05.388Z,10.1
2023-05-11T07:34:07.294Z,6.4
2023-05-11T07:37:09.276Z,6
2023-05-11T07:40:11.222Z,6.6
2023-05-11T07:43:13.186Z,10.7
2023-05-11T07:46:15.242Z,8.4
2023-05-11T07:49:22.892Z,9.3
2023-05-11T07:52:19.136Z,8.2
2023-05-11T07:55:21.237Z,8.6
2023-05-11T07:58:23.010Z,8.7
2023-05-11T08:01:24.959Z,6.8
2023-05-11T08:04:26.912Z,8.4
2023-05-11T08:07:28.886Z,10.3
2023-05-11T08:10:30.851Z,9.7
2023-05-11T08:13:32.831Z,9.9
2023-05-11T08:16:34.819Z,9.1
2023-05-11T08:19:36.766Z,7.7
2023-05-11T08:22:38.702Z,6.9
2023-05-11T08:25:40.672Z,8.4
2023-05-11T08:28:42.668Z,7.2
2023-05-11T08:31:44.664Z,7.8
2023-05-11T08:34:46.734Z,6.5
2023-05-11T08:37:48.651Z,7.4
2023-05-11T08:40:50.653Z,9
2023-05-11T08:43:52.612Z,10.6
2023-05-11T08:47:05.914Z,7.8
2023-05-11T08:49:56.518Z,7.5
2023-05-11T08:52:58.561Z,9.6
2023-05-11T08:56:00.585Z,7.7
2023-05-11T08:59:02.497Z,5.6
2023-05-11T09:02:04.464Z,6.6
2023-05-11T09:05:06.436Z,9.9
2023-05-11T09:08:08.390Z,8
2023-05-11T09:11:10.394Z,9.9
2023-05-11T09:14:12.342Z,9.8
2023-05-11T09:17:14.352Z,6.6
2023-05-11T09:20:16.553Z,8.2
2023-05-11T09:23:18.397Z,7
2023-05-11T09:26:20.380Z,6.3
2023-05-11T09:29:22.341Z,8.3
2023-05-11T09:32:24.305Z,8.1
2023-05-11T09:35:26.269Z,7.1
2023-05-11T09:38:28.318Z,7.3
2023-05-11T09:41:34.648Z,8.9
2023-05-11T09:44:32.167Z,9.1
2023-05-11T09:47:34.166Z,7.9
2023-05-11T09:50:36.110Z,6.6
2023-05-11T09:53:38.067Z,8
2023-05-11T09:56:40.084Z,8.7
2023-05-11T09:59:42.064Z,7.5
2023-05-11T10:02:44.120Z,8.8
2023-05-11T10:05:45.974Z,7
2023-05-11T10:08:48.197Z,7.1
2023-05-11T10:11:49.915Z,9.4
2023-05-11T10:14:51.932Z,6
2023-05-11T10:17:53.885Z,5
2023-05-11T10:20:55.825Z,7.4
2023-05-11T10:23:57.779Z,6.2
2023-05-11T10:26:59.772Z,8.9
2023-05-11T10:30:01.712Z,7.8
2023-05-11T10:33:03.730Z,6
2023-05-11T10:36:05.652Z,7.3
2023-05-11T10:39:07.632Z,4.4
2023-05-11T10:42:09.572Z,6.5
2023-05-11T10:45:11.511Z,7.4
2023-05-11T10:48:13.535Z,6.4
2023-05-11T10:51:15.545Z,5.1
2023-05-11T10:54:17.446Z,5.8
2023-05-11T10:57:19.406Z,5.7
2023-05-11T11:00:21.570Z,6.2
2023-05-11T11:03:23.322Z,5.9
2023-05-11T11:06:25.286Z,6.8
2023-05-11T11:09:27.287Z,6.3
2023-05-11T11:12:29.268Z,7
2023-05-11T11:15:31.197Z,3.9
2023-05-11T11:18:33.291Z,4.2
2023-05-11T11:21:35.120Z,6.6
2023-05-11T11:24:37.369Z,6.3
2023-05-11T11:27:39.080Z,6.8
2023-05-11T11:30:41.027Z,6.9
2023-05-11T11:33:42.980Z,4.6
2023-05-11T11:36:44.950Z,4.5
2023-05-11T11:39:46.900Z,4.9
2023-05-11T11:42:48.866Z,6.1
2023-05-11T11:45:50.897Z,4.9
2023-05-11T11:48:54.904Z,6.8
2023-05-11T11:51:54.826Z,8.2
2023-05-11T11:54:56.887Z,5.6
2023-05-11T11:57:58.788Z,6.7
2023-05-11T12:01:00.738Z,6.3
2023-05-11T12:04:03.036Z,5.6
2023-05-11T12:07:04.952Z,7
2023-05-11T12:10:07.075Z,7.6
2023-05-11T12:13:08.891Z,6.5
2023-05-11T12:16:10.871Z,7.3
2023-05-11T12:19:12.902Z,6.3
2023-05-11T12:22:14.864Z,7.8
2023-05-11T12:25:16.768Z,9.4
2023-05-11T12:28:18.717Z,7.3
2023-05-11T12:31:20.700Z,8.4
2023-05-11T12:34:22.709Z,9.2
2023-05-11T12:37:24.608Z,7.2
2023-05-11T12:40:26.573Z,6.8
2023-05-11T12:43:28.560Z,11.3
2023-05-11T12:46:30.568Z,9.2
2023-05-11T12:49:32.488Z,11.8
2023-05-11T12:52:34.482Z,10.4
2023-05-11T12:55:36.436Z,11.4
2023-05-11T12:58:38.376Z,10.5
2023-05-11T13:01:40.396Z,12.7
2023-05-11T13:04:42.364Z,10.8
2023-05-11T13:07:44.236Z,8.3
2023-05-11T13:10:46.216Z,8.2
2023-05-11T13:13:48.220Z,9.5
2023-05-11T13:16:50.179Z,8.7
2023-05-11T13:19:52.085Z,9
2023-05-11T13:22:54.079Z,9
2023-05-11T13:25:56.027Z,8.5
2023-05-11T13:29:09.101Z,10.8
2023-05-11T13:32:00.131Z,11.1
2023-05-11T13:35:01.988Z,10.2
2023-05-11T13:38:03.964Z,10.9
2023-05-11T13:41:05.890Z,9.4
2023-05-11T13:44:07.964Z,7.2
2023-05-11T13:47:09.907Z,6.2
2023-05-11T13:50:11.745Z,7.3
2023-05-11T13:53:13.940Z,8.6
2023-05-11T13:56:15.703Z,11.8
2023-05-11T13:59:17.639Z,6.4
2023-05-11T14:02:19.644Z,8.9
2023-05-11T14:05:21.772Z,6.6
2023-05-11T14:08:23.529Z,6.3
2023-05-11T14:11:25.527Z,6.6
2023-05-11T14:14:27.496Z,9.3
2023-05-11T14:17:31.490Z,7.6
2023-05-11T14:20:31.399Z,9.2
2023-05-11T14:23:33.325Z,8
2023-05-11T14:26:35.275Z,9.2
2023-05-11T14:29:40.543Z,7.7
2023-05-11T14:32:39.320Z,8.8
2023-05-11T14:35:41.250Z,11.6
2023-05-11T14:38:43.203Z,8.5
2023-05-11T14:41:45.181Z,8.4
2023-05-11T14:44:47.113Z,9.7
2023-05-11T14:47:49.398Z,9.9
2023-05-11T14:50:51.097Z,7.4
2023-05-11T14:53:53.004Z,5.6
2023-05-11T14:56:55.787Z,5.7
2023-05-11T14:59:59.869Z,4.6
2023-05-11T15:02:58.982Z,5.6
2023-05-11T15:06:00.935Z,4.4
2023-05-11T15:09:02.895Z,3.8
2023-05-11T15:12:04.910Z,5.8
2023-05-11T15:15:06.834Z,6.4
2023-05-11T15:18:08.844Z,7.2
2023-05-11T15:21:10.773Z,6.2
2023-05-11T15:24:12.725Z,8.8
2023-05-11T15:27:14.674Z,6.8
2023-05-11T15:30:16.627Z,10.3
2023-05-11T15:33:18.624Z,6.5
2023-05-11T15:36:20.574Z,6.9
2023-05-11T15:39:22.586Z,6.9
2023-05-11T15:42:24.503Z,4.3
2023-05-11T15:45:26.985Z,8.4
2023-05-11T15:48:28.675Z,7.3
2023-05-11T15:51:30.398Z,8.1
2023-05-11T15:54:33.900Z,8.4
2023-05-11T15:57:34.316Z,9.1
2023-05-11T16:00:36.283Z,6.8
2023-05-11T16:03:38.296Z,6
2023-05-11T16:06:40.237Z,4.7
2023-05-11T16:09:42.223Z,7.7
2023-05-11T16:12:44.178Z,6.4
2023-05-11T16:15:46.141Z,6.2
2023-05-11T16:18:48.144Z,6.6
2023-05-11T16:24:52.073Z,6.7
2023-05-11T16:27:54.026Z,5.2
2023-05-11T16:30:57.823Z,9.6
2023-05-11T16:33:57.948Z,6.2
2023-05-11T16:36:59.892Z,5.4
2023-05-11T16:40:01.869Z,7.5
2023-05-11T16:43:03.824Z,8.7
2023-05-11T16:46:05.858Z,9.1
2023-05-11T16:49:07.750Z,8.8
2023-05-11T16:52:09.751Z,9.7
2023-05-11T16:55:11.715Z,8.5
2023-05-11T16:58:13.646Z,8.7
2023-05-11T17:01:15.675Z,9.7
2023-05-11T17:04:17.671Z,10.5
2023-05-11T17:07:19.550Z,10.2
2023-05-11T17:10:21.691Z,10.8
2023-05-11T17:13:23.476Z,11.8
2023-05-11T17:16:25.518Z,11.7
2023-05-11T17:19:27.477Z,11.1
2023-05-11T17:22:29.443Z,13.9
2023-05-11T17:25:31.383Z,14.1
2023-05-11T17:28:33.338Z,15.4
2023-05-11T17:31:35.701Z,16
2023-05-11T17:34:37.454Z,12.5
2023-05-11T17:37:39.412Z,15
2023-05-11T17:40:41.452Z,13.9
2023-05-11T17:43:43.319Z,14.5
2023-05-11T17:46:45.333Z,13.4
2023-05-11T17:49:47.258Z,15.9
2023-05-11T17:52:50.933Z,14
2023-05-11T17:55:51.164Z,11.1
2023-05-11T17:58:53.177Z,14.3
2023-05-11T18:01:55.257Z,15.3
2023-05-11T18:04:57.084Z,15.9
2023-05-11T18:07:59.063Z,17.2
2023-05-11T18:11:01.031Z,15.5
2023-05-11T18:14:03.002Z,17.9
2023-05-11T18:17:05.023Z,16.3
2023-05-11T18:20:07.017Z,12.5
2023-05-11T18:23:08.880Z,15.3
2023-05-11T18:26:10.909Z,13.3
2023-05-11T18:29:12.972Z,15.8
2023-05-11T18:32:14.939Z,16
2023-05-11T18:35:16.900Z,14.1
2023-05-11T18:38:18.947Z,13.6
2023-05-11T18:41:20.833Z,15.9
2023-05-11T18:44:22.822Z,16.8
2023-05-11T18:47:24.812Z,13.5
2023-05-11T18:50:26.749Z,13.3
2023-05-11T18:53:28.710Z,13.2
2023-05-11T18:56:30.682Z,11.9
2023-05-11T18:59:32.692Z,10.6
2023-05-11T19:02:34.774Z,14
2023-05-11T19:05:36.538Z,11.4
2023-05-11T19:08:38.850Z,11.1
2023-05-11T19:11:40.543Z,10.9
2023-05-11T19:14:45.355Z,12.6
2023-05-11T19:17:44.580Z,12
2023-05-11T19:20:46.584Z,10.7
2023-05-11T19:23:48.533Z,9.3
2023-05-11T19:27:02.882Z,7.1
2023-05-11T19:29:52.485Z,9.5
2023-05-11T19:32:54.489Z,8.7
2023-05-11T19:35:56.418Z,8.7
2023-05-11T19:38:58.356Z,8.4
2023-05-11T19:42:00.454Z,8.7
2023-05-11T19:45:02.417Z,7.2
2023-05-11T19:48:04.411Z,7.4
2023-05-11T19:51:06.356Z,5.5
2023-05-11T19:54:08.351Z,6
2023-05-11T19:57:10.360Z,4.9
2023-05-11T20:00:12.352Z,5
2023-05-11T20:03:14.320Z,6.5
2023-05-11T20:06:16.542Z,6.7
2023-05-11T20:09:18.217Z,5.3
2023-05-11T20:12:20.307Z,7.2
2023-05-11T20:15:22.156Z,5.4
2023-05-11T20:18:24.146Z,5.9
2023-05-11T20:21:26.112Z,5.3
2023-05-11T20:24:28.052Z,6.5
2023-05-11T20:27:30.006Z,6.1
2023-05-11T20:30:31.996Z,6.6
2023-05-11T20:36:35.928Z,5.8
2023-05-11T20:39:37.896Z,7
2023-05-11T20:42:39.845Z,7
2023-05-11T20:45:42.008Z,6.8
2023-05-11T20:48:46.943Z,7.7
2023-05-11T20:51:45.745Z,6.2
2023-05-11T20:54:47.678Z,8.5
2023-05-11T20:57:49.651Z,6.3
2023-05-11T21:00:51.731Z,5.1
2023-05-11T21:03:53.562Z,6.3
2023-05-11T21:06:55.509Z,5.8
2023-05-11T21:09:57.550Z,5.3
2023-05-11T21:12:59.497Z,4.6
2023-05-11T21:16:01.470Z,5.1
2023-05-11T21:19:03.505Z,4.4
2023-05-11T21:22:05.385Z,4.8
2023-05-11T21:25:07.397Z,4.7
2023-05-11T21:28:09.295Z,5.8
2023-05-11T21:31:11.323Z,5
2023-05-11T21:34:13.207Z,5.8
2023-05-11T21:37:15.207Z,5.5
2023-05-11T21:40:17.373Z,6.2
2023-05-11T21:43:19.126Z,7
2023-05-11T21:46:21.197Z,6.5
2023-05-11T21:49:23.124Z,6.5
2023-05-11T21:52:25.030Z,8.4
2023-05-11T21:55:26.989Z,6.4
2023-05-11T21:58:29.060Z,6.3
2023-05-11T22:01:31.075Z,5.2
2023-05-11T22:04:32.926Z,6
2023-05-11T22:07:34.930Z,6.9
2023-05-11T22:10:36.909Z,8.3
2023-05-11T22:13:38.876Z,6.2
2023-05-11T22:16:40.841Z,7.3
2023-05-11T22:19:42.817Z,7.1
2023-05-11T22:22:44.804Z,8.6
2023-05-11T22:25:46.724Z,7.9
2023-05-11T22:28:48.680Z,6.6
2023-05-11T22:31:50.663Z,7.9
2023-05-11T22:34:52.591Z,10.3
2023-05-11T22:37:54.547Z,9.1
2023-05-11T22:40:56.517Z,10.8
2023-05-11T22:43:58.515Z,17.1
2023-05-11T22:47:00.484Z,17.9
2023-05-11T22:50:02.456Z,19.6
2023-05-11T22:53:04.416Z,19
2023-05-11T22:56:06.380Z,20.7
2023-05-11T22:59:08.316Z,23.2
2023-05-11T23:02:10.348Z,24.5
2023-05-11T23:05:12.273Z,26.4
2023-05-11T23:08:14.271Z,24.7
2023-05-11T23:11:16.261Z,23.9
2023-05-11T23:14:18.177Z,22.2
2023-05-11T23:17:20.490Z,20.5
2023-05-11T23:20:22.203Z,22.1
2023-05-11T23:23:24.064Z,19.3
2023-05-11T23:26:26.015Z,18
2023-05-11T23:29:28.124Z,13.7
2023-05-11T23:32:30.032Z,13.9
2023-05-11T23:35:31.963Z,14
2023-05-11T23:38:33.924Z,11.7
2023-05-11T23:41:35.875Z,13.9
2023-05-11T23:44:37.848Z,13.9
2023-05-11T23:47:39.901Z,16.5
2023-05-11T23:50:41.747Z,15.4
2023-05-11T23:53:43.734Z,16.3
2023-05-11T23:56:45.653Z,16.8
2023-05-11T23:59:47.644Z,16.5
